In Rescue
 
Open Full Screen Window  High Contrast Mode
Wind Gusting 00 knots
04
August 30, 2019 9:26 PM GMT
Weather Information
Wind Direction
  280 °
Wind Speed
  04 kt (5 mph)
Wind Gust
  00 kt (0 mph)
Altimeter
29.94 in
Visibility
10 SM
Temperature
25° C
77° F
Dewpoint
09° C
48° F
Humidity
36%
1hr Rain Fall
00.00 in.
24hr Rain Fall
00.00 in.
Sky Condition
Clear
VFR

METAR K6B0 302126Z AUTO 28004KT 10SM CLR 25/09 A2994 RMK AO2 T02510092

FAA Disclaimer: The data displayed is for advisory purposes only and is not to be used for flight planning or operations.